sensor_id;sensor_type;location;lat;lon;timestamp;temperature;humidity
2407;DHT22;37709;53.480;9.688;2024-03-23T00:53:54;4.80;99.90
2407;DHT22;37709;53.480;9.688;2024-03-23T00:56:20;4.80;99.90
2407;DHT22;37709;53.480;9.688;2024-03-23T00:58:47;4.80;99.90
2407;DHT22;37709;53.480;9.688;2024-03-23T01:01:14;4.90;99.90
2407;DHT22;37709;53.480;9.688;2024-03-23T01:03:41;4.80;99.90
2407;DHT22;37709;53.480;9.688;2024-03-23T01:06:07;4.80;99.90
2407;DHT22;37709;53.480;9.688;2024-03-23T01:08:33;4.80;99.90
2407;DHT22;37709;53.480;9.688;2024-03-23T01:11:01;4.70;99.90
2407;DHT22;37709;53.480;9.688;2024-03-23T01:13:31;4.70;99.90
2407;DHT22;37709;53.480;9.688;2024-03-23T01:15:57;4.90;99.90
2407;DHT22;37709;53.480;9.688;2024-03-23T01:18:24;4.80;99.90
2407;DHT22;37709;53.480;9.688;2024-03-23T01:20:55;4.80;99.90
2407;DHT22;37709;53.480;9.688;2024-03-23T01:23:21;4.80;99.90
2407;DHT22;37709;53.480;9.688;2024-03-23T01:25:53;4.70;99.90
2407;DHT22;37709;53.480;9.688;2024-03-23T01:28:21;4.70;99.90
2407;DHT22;37709;53.480;9.688;2024-03-23T01:30:48;4.70;99.90
2407;DHT22;37709;53.480;9.688;2024-03-23T01:33:14;4.70;99.90
2407;DHT22;37709;53.480;9.688;2024-03-23T01:35:41;4.80;99.90
2407;DHT22;37709;53.480;9.688;2024-03-23T01:38:07;4.80;99.90
2407;DHT22;37709;53.480;9.688;2024-03-23T01:40:33;4.80;99.90
2407;DHT22;37709;53.480;9.688;2024-03-23T01:43:05;4.80;99.90
2407;DHT22;37709;53.480;9.688;2024-03-23T01:45:32;4.80;99.90
2407;DHT22;37709;53.480;9.688;2024-03-23T01:48:00;4.70;99.90
2407;DHT22;37709;53.480;9.688;2024-03-23T01:50:27;4.70;99.90
2407;DHT22;37709;53.480;9.688;2024-03-23T01:52:56;4.70;99.90
2407;DHT22;37709;53.480;9.688;2024-03-23T01:55:23;4.80;99.90
2407;DHT22;37709;53.480;9.688;2024-03-23T01:57:50;4.80;99.90
2407;DHT22;37709;53.480;9.688;2024-03-23T02:00:17;4.80;99.90
2407;DHT22;37709;53.480;9.688;2024-03-23T02:02:44;4.70;99.90
2407;DHT22;37709;53.480;9.688;2024-03-23T02:05:12;4.70;99.90
2407;DHT22;37709;53.480;9.688;2024-03-23T02:07:42;4.70;99.90
2407;DHT22;37709;53.480;9.688;2024-03-23T02:10:12;4.70;99.90
2407;DHT22;37709;53.480;9.688;2024-03-23T02:12:41;4.60;99.90
2407;DHT22;37709;53.480;9.688;2024-03-23T02:15:08;4.60;99.90
2407;DHT22;37709;53.480;9.688;2024-03-23T02:17:35;4.60;99.90
2407;DHT22;37709;53.480;9.688;2024-03-23T02:20:03;4.50;99.90
2407;DHT22;37709;53.480;9.688;2024-03-23T02:22:37;4.40;99.90
2407;DHT22;37709;53.480;9.688;2024-03-23T02:25:05;4.50;99.90
2407;DHT22;37709;53.480;9.688;2024-03-23T02:27:31;4.40;99.90
2407;DHT22;37709;53.480;9.688;2024-03-23T02:29:59;4.40;99.90
2407;DHT22;37709;53.480;9.688;2024-03-23T02:32:25;4.40;99.90
2407;DHT22;37709;53.480;9.688;2024-03-23T02:34:52;4.50;99.90
2407;DHT22;37709;53.480;9.688;2024-03-23T02:37:19;4.50;99.90
2407;DHT22;37709;53.480;9.688;2024-03-23T02:39:46;4.50;99.90
2407;DHT22;37709;53.480;9.688;2024-03-23T02:42:12;4.50;99.90
2407;DHT22;37709;53.480;9.688;2024-03-23T02:44:39;4.50;99.90
2407;DHT22;37709;53.480;9.688;2024-03-23T02:47:05;4.40;99.90
2407;DHT22;37709;53.480;9.688;2024-03-23T02:49:32;4.40;99.90
2407;DHT22;37709;53.480;9.688;2024-03-23T02:51:58;4.40;99.90
2407;DHT22;37709;53.480;9.688;2024-03-23T02:54:24;4.40;99.90
2407;DHT22;37709;53.480;9.688;2024-03-23T02:56:52;4.40;99.90
2407;DHT22;37709;53.480;9.688;2024-03-23T02:59:18;4.40;99.90
2407;DHT22;37709;53.480;9.688;2024-03-23T03:01:45;4.40;99.90
2407;DHT22;37709;53.480;9.688;2024-03-23T03:04:11;4.30;99.90
2407;DHT22;37709;53.480;9.688;2024-03-23T03:06:37;4.40;99.90
2407;DHT22;37709;53.480;9.688;2024-03-23T03:09:03;4.40;99.90
2407;DHT22;37709;53.480;9.688;2024-03-23T03:11:30;4.40;99.90
2407;DHT22;37709;53.480;9.688;2024-03-23T03:13:57;4.40;99.90
2407;DHT22;37709;53.480;9.688;2024-03-23T03:16:23;4.40;99.90
2407;DHT22;37709;53.480;9.688;2024-03-23T03:18:49;4.40;99.90
2407;DHT22;37709;53.480;9.688;2024-03-23T03:21:16;4.40;99.90
2407;DHT22;37709;53.480;9.688;2024-03-23T03:23:42;4.30;99.90
2407;DHT22;37709;53.480;9.688;2024-03-23T03:26:11;4.30;99.90
2407;DHT22;37709;53.480;9.688;2024-03-23T03:28:38;4.30;99.90
2407;DHT22;37709;53.480;9.688;2024-03-23T03:31:04;4.40;99.90
2407;DHT22;37709;53.480;9.688;2024-03-23T03:33:30;4.40;99.90
2407;DHT22;37709;53.480;9.688;2024-03-23T03:35:57;4.30;99.90
2407;DHT22;37709;53.480;9.688;2024-03-23T03:38:23;4.40;99.90
2407;DHT22;37709;53.480;9.688;2024-03-23T03:40:50;4.30;99.90
2407;DHT22;37709;53.480;9.688;2024-03-23T03:43:16;4.30;99.90
2407;DHT22;37709;53.480;9.688;2024-03-23T03:45:42;4.20;99.90
2407;DHT22;37709;53.480;9.688;2024-03-23T03:48:17;4.10;99.90
2407;DHT22;37709;53.480;9.688;2024-03-23T03:50:44;4.10;99.90
2407;DHT22;37709;53.480;9.688;2024-03-23T03:53:10;4.10;99.90
2407;DHT22;37709;53.480;9.688;2024-03-23T03:55:36;4.10;99.90
2407;DHT22;37709;53.480;9.688;2024-03-23T03:58:03;4.20;99.90
2407;DHT22;37709;53.480;9.688;2024-03-23T04:00:31;4.20;99.90
2407;DHT22;37709;53.480;9.688;2024-03-23T04:02:57;4.20;99.90
2407;DHT22;37709;53.480;9.688;2024-03-23T04:05:25;4.20;99.90
2407;DHT22;37709;53.480;9.688;2024-03-23T04:07:51;4.20;99.90
2407;DHT22;37709;53.480;9.688;2024-03-23T04:10:18;4.20;99.90
2407;DHT22;37709;53.480;9.688;2024-03-23T04:12:45;4.20;99.90
2407;DHT22;37709;53.480;9.688;2024-03-23T04:15:12;4.30;99.90
2407;DHT22;37709;53.480;9.688;2024-03-23T04:17:38;4.20;99.90
2407;DHT22;37709;53.480;9.688;2024-03-23T04:20:05;4.10;99.90
2407;DHT22;37709;53.480;9.688;2024-03-23T04:22:35;4.00;99.90
2407;DHT22;37709;53.480;9.688;2024-03-23T04:25:01;4.10;99.90
2407;DHT22;37709;53.480;9.688;2024-03-23T04:27:39;4.00;99.90
2407;DHT22;37709;53.480;9.688;2024-03-23T04:30:07;4.00;99.90
2407;DHT22;37709;53.480;9.688;2024-03-23T04:32:38;4.00;99.90
2407;DHT22;37709;53.480;9.688;2024-03-23T04:35:05;4.10;99.90
2407;DHT22;37709;53.480;9.688;2024-03-23T04:37:32;4.00;99.90
2407;DHT22;37709;53.480;9.688;2024-03-23T04:40:01;4.10;99.90
2407;DHT22;37709;53.480;9.688;2024-03-23T04:42:28;4.10;99.90
2407;DHT22;37709;53.480;9.688;2024-03-23T04:44:55;4.10;99.90
2407;DHT22;37709;53.480;9.688;2024-03-23T04:47:21;4.10;99.90
2407;DHT22;37709;53.480;9.688;2024-03-23T04:49:49;4.10;99.90
2407;DHT22;37709;53.480;9.688;2024-03-23T04:52:19;4.20;99.90
2407;DHT22;37709;53.480;9.688;2024-03-23T04:54:45;4.20;99.90
2407;DHT22;37709;53.480;9.688;2024-03-23T04:57:12;4.20;99.90
2407;DHT22;37709;53.480;9.688;2024-03-23T04:59:46;4.20;99.90
2407;DHT22;37709;53.480;9.688;2024-03-23T05:02:14;4.30;99.90
2407;DHT22;37709;53.480;9.688;2024-03-23T05:04:42;4.30;99.90
2407;DHT22;37709;53.480;9.688;2024-03-23T05:07:08;4.30;99.90
2407;DHT22;37709;53.480;9.688;2024-03-23T05:09:34;4.20;99.90
2407;DHT22;37709;53.480;9.688;2024-03-23T05:12:01;4.20;99.90
2407;DHT22;37709;53.480;9.688;2024-03-23T05:14:27;4.30;99.90
2407;DHT22;37709;53.480;9.688;2024-03-23T05:16:54;4.20;99.90
2407;DHT22;37709;53.480;9.688;2024-03-23T05:19:20;4.20;99.90
2407;DHT22;37709;53.480;9.688;2024-03-23T05:21:47;4.20;99.90
2407;DHT22;37709;53.480;9.688;2024-03-23T05:24:14;4.20;99.90
2407;DHT22;37709;53.480;9.688;2024-03-23T05:26:41;4.20;99.90
2407;DHT22;37709;53.480;9.688;2024-03-23T05:29:09;4.20;99.90
2407;DHT22;37709;53.480;9.688;2024-03-23T05:31:39;4.30;99.90
2407;DHT22;37709;53.480;9.688;2024-03-23T05:34:08;4.30;99.90
2407;DHT22;37709;53.480;9.688;2024-03-23T05:36:36;4.30;99.90
2407;DHT22;37709;53.480;9.688;2024-03-23T05:39:03;4.30;99.90
2407;DHT22;37709;53.480;9.688;2024-03-23T05:41:30;4.40;99.90
2407;DHT22;37709;53.480;9.688;2024-03-23T05:43:56;4.40;99.90
2407;DHT22;37709;53.480;9.688;2024-03-23T05:46:23;4.40;99.90
2407;DHT22;37709;53.480;9.688;2024-03-23T05:48:50;4.40;99.90
2407;DHT22;37709;53.480;9.688;2024-03-23T05:51:26;4.40;99.90
2407;DHT22;37709;53.480;9.688;2024-03-23T05:53:52;4.40;99.90
2407;DHT22;37709;53.480;9.688;2024-03-23T05:56:20;4.40;99.90
2407;DHT22;37709;53.480;9.688;2024-03-23T05:58:46;4.40;99.90
2407;DHT22;37709;53.480;9.688;2024-03-23T06:01:13;4.60;99.90
2407;DHT22;37709;53.480;9.688;2024-03-23T06:03:39;4.50;99.90
2407;DHT22;37709;53.480;9.688;2024-03-23T06:06:06;4.60;99.90
2407;DHT22;37709;53.480;9.688;2024-03-23T06:08:38;4.70;99.90
2407;DHT22;37709;53.480;9.688;2024-03-23T06:11:05;4.80;99.90
2407;DHT22;37709;53.480;9.688;2024-03-23T06:13:34;4.90;99.90
2407;DHT22;37709;53.480;9.688;2024-03-23T06:16:01;4.90;99.90
2407;DHT22;37709;53.480;9.688;2024-03-23T06:18:27;4.90;99.90
2407;DHT22;37709;53.480;9.688;2024-03-23T06:20:54;4.90;99.90
2407;DHT22;37709;53.480;9.688;2024-03-23T06:23:21;5.00;99.90
2407;DHT22;37709;53.480;9.688;2024-03-23T06:25:48;5.00;99.90
2407;DHT22;37709;53.480;9.688;2024-03-23T06:28:15;5.10;99.90
2407;DHT22;37709;53.480;9.688;2024-03-23T06:30:42;5.20;99.90
2407;DHT22;37709;53.480;9.688;2024-03-23T06:33:09;5.20;99.90
2407;DHT22;37709;53.480;9.688;2024-03-23T06:35:35;5.20;99.90
2407;DHT22;37709;53.480;9.688;2024-03-23T06:38:02;5.20;99.90
2407;DHT22;37709;53.480;9.688;2024-03-23T06:40:28;5.20;99.90
2407;DHT22;37709;53.480;9.688;2024-03-23T06:42:54;5.30;99.90
2407;DHT22;37709;53.480;9.688;2024-03-23T06:45:21;5.30;99.90
2407;DHT22;37709;53.480;9.688;2024-03-23T06:47:49;5.30;99.90
2407;DHT22;37709;53.480;9.688;2024-03-23T06:50:17;5.20;99.90
2407;DHT22;37709;53.480;9.688;2024-03-23T06:52:43;5.20;99.90
2407;DHT22;37709;53.480;9.688;2024-03-23T06:55:09;5.20;99.90
2407;DHT22;37709;53.480;9.688;2024-03-23T06:57:36;5.30;99.90
2407;DHT22;37709;53.480;9.688;2024-03-23T07:00:02;5.60;99.90
2407;DHT22;37709;53.480;9.688;2024-03-23T07:02:30;6.10;99.90
2407;DHT22;37709;53.480;9.688;2024-03-23T07:04:56;6.20;99.90
2407;DHT22;37709;53.480;9.688;2024-03-23T07:07:48;6.80;99.90
2407;DHT22;37709;53.480;9.688;2024-03-23T07:10:16;8.00;99.90
2407;DHT22;37709;53.480;9.688;2024-03-23T07:12:42;8.10;99.90
2407;DHT22;37709;53.480;9.688;2024-03-23T07:15:09;9.30;99.90
2407;DHT22;37709;53.480;9.688;2024-03-23T07:17:36;9.60;99.90
2407;DHT22;37709;53.480;9.688;2024-03-23T07:20:03;9.20;99.90
2407;DHT22;37709;53.480;9.688;2024-03-23T07:22:31;8.70;99.90
2407;DHT22;37709;53.480;9.688;2024-03-23T07:25:01;10.20;99.90
2407;DHT22;37709;53.480;9.688;2024-03-23T07:27:29;12.60;99.90
2407;DHT22;37709;53.480;9.688;2024-03-23T07:29:56;13.70;99.90
2407;DHT22;37709;53.480;9.688;2024-03-23T07:32:23;14.70;99.90
2407;DHT22;37709;53.480;9.688;2024-03-23T07:34:49;15.20;99.90
2407;DHT22;37709;53.480;9.688;2024-03-23T07:37:15;15.90;99.90
2407;DHT22;37709;53.480;9.688;2024-03-23T07:39:44;16.10;99.90
2407;DHT22;37709;53.480;9.688;2024-03-23T07:42:10;15.90;99.90
2407;DHT22;37709;53.480;9.688;2024-03-23T07:44:37;16.80;99.90
2407;DHT22;37709;53.480;9.688;2024-03-23T07:47:04;16.90;99.90
2407;DHT22;37709;53.480;9.688;2024-03-23T07:49:30;17.80;99.90
2407;DHT22;37709;53.480;9.688;2024-03-23T07:51:57;18.00;99.90
2407;DHT22;37709;53.480;9.688;2024-03-23T07:54:25;18.10;99.90
2407;DHT22;37709;53.480;9.688;2024-03-23T07:56:52;17.60;99.90
2407;DHT22;37709;53.480;9.688;2024-03-23T07:59:18;17.80;99.90
2407;DHT22;37709;53.480;9.688;2024-03-23T08:01:45;18.40;99.90
2407;DHT22;37709;53.480;9.688;2024-03-23T08:04:12;19.40;99.90
2407;DHT22;37709;53.480;9.688;2024-03-23T08:06:38;19.10;99.90
2407;DHT22;37709;53.480;9.688;2024-03-23T08:09:04;19.20;99.90
2407;DHT22;37709;53.480;9.688;2024-03-23T08:11:32;19.10;99.90
2407;DHT22;37709;53.480;9.688;2024-03-23T08:14:01;19.10;99.90
2407;DHT22;37709;53.480;9.688;2024-03-23T08:16:28;19.50;99.90
2407;DHT22;37709;53.480;9.688;2024-03-23T08:18:55;19.00;99.90
2407;DHT22;37709;53.480;9.688;2024-03-23T08:21:24;21.00;99.90
2407;DHT22;37709;53.480;9.688;2024-03-23T08:23:52;20.60;99.90
2407;DHT22;37709;53.480;9.688;2024-03-23T08:26:19;20.80;99.90
2407;DHT22;37709;53.480;9.688;2024-03-23T08:28:47;21.70;99.90
2407;DHT22;37709;53.480;9.688;2024-03-23T08:31:14;17.90;99.90
2407;DHT22;37709;53.480;9.688;2024-03-23T08:33:41;18.80;99.90
2407;DHT22;37709;53.480;9.688;2024-03-23T08:36:10;18.80;99.90
2407;DHT22;37709;53.480;9.688;2024-03-23T08:38:40;20.40;99.90
2407;DHT22;37709;53.480;9.688;2024-03-23T08:41:09;19.40;99.90
2407;DHT22;37709;53.480;9.688;2024-03-23T08:43:37;18.40;99.90
2407;DHT22;37709;53.480;9.688;2024-03-23T08:46:08;17.30;99.90
2407;DHT22;37709;53.480;9.688;2024-03-23T08:48:36;16.40;99.90
2407;DHT22;37709;53.480;9.688;2024-03-23T08:51:07;17.90;99.90
2407;DHT22;37709;53.480;9.688;2024-03-23T08:53:34;18.20;99.90
2407;DHT22;37709;53.480;9.688;2024-03-23T08:56:02;17.80;99.90
2407;DHT22;37709;53.480;9.688;2024-03-23T08:58:30;19.80;99.90
2407;DHT22;37709;53.480;9.688;2024-03-23T09:01:03;16.10;99.90
2407;DHT22;37709;53.480;9.688;2024-03-23T09:03:30;14.00;99.90
2407;DHT22;37709;53.480;9.688;2024-03-23T09:05:57;12.50;99.90
2407;DHT22;37709;53.480;9.688;2024-03-23T09:08:25;11.60;99.90
2407;DHT22;37709;53.480;9.688;2024-03-23T09:10:52;11.70;99.90
2407;DHT22;37709;53.480;9.688;2024-03-23T09:13:20;10.80;99.90
2407;DHT22;37709;53.480;9.688;2024-03-23T09:15:51;11.50;99.90
2407;DHT22;37709;53.480;9.688;2024-03-23T09:18:18;16.40;99.90
2407;DHT22;37709;53.480;9.688;2024-03-23T09:20:44;19.40;99.90
2407;DHT22;37709;53.480;9.688;2024-03-23T09:23:11;22.50;99.90
2407;DHT22;37709;53.480;9.688;2024-03-23T09:28:06;20.00;99.90
2407;DHT22;37709;53.480;9.688;2024-03-23T09:30:35;17.20;99.90
2407;DHT22;37709;53.480;9.688;2024-03-23T09:33:02;17.00;99.90
2407;DHT22;37709;53.480;9.688;2024-03-23T09:35:31;18.60;99.90
2407;DHT22;37709;53.480;9.688;2024-03-23T09:37:57;17.40;99.90
2407;DHT22;37709;53.480;9.688;2024-03-23T09:40:24;15.60;99.90
2407;DHT22;37709;53.480;9.688;2024-03-23T09:42:51;14.40;99.90
2407;DHT22;37709;53.480;9.688;2024-03-23T09:45:21;13.90;99.90
2407;DHT22;37709;53.480;9.688;2024-03-23T09:47:48;12.70;99.90
2407;DHT22;37709;53.480;9.688;2024-03-23T09:50:16;13.10;99.90
2407;DHT22;37709;53.480;9.688;2024-03-23T09:52:46;12.60;99.90
2407;DHT22;37709;53.480;9.688;2024-03-23T09:55:12;13.80;99.90
2407;DHT22;37709;53.480;9.688;2024-03-23T09:57:43;13.80;99.90
2407;DHT22;37709;53.480;9.688;2024-03-23T10:00:10;17.20;99.90
2407;DHT22;37709;53.480;9.688;2024-03-23T10:02:38;19.40;99.90
2407;DHT22;37709;53.480;9.688;2024-03-23T10:05:05;19.80;99.90
2407;DHT22;37709;53.480;9.688;2024-03-23T10:07:46;19.80;99.90
2407;DHT22;37709;53.480;9.688;2024-03-23T10:10:13;23.30;99.90
2407;DHT22;37709;53.480;9.688;2024-03-23T10:12:48;23.50;99.90
2407;DHT22;37709;53.480;9.688;2024-03-23T10:15:24;25.80;99.90
2407;DHT22;37709;53.480;9.688;2024-03-23T10:17:51;23.00;99.90
2407;DHT22;37709;53.480;9.688;2024-03-23T10:20:22;24.50;99.90
2407;DHT22;37709;53.480;9.688;2024-03-23T10:22:49;24.90;99.90
2407;DHT22;37709;53.480;9.688;2024-03-23T10:25:18;27.50;96.80
2407;DHT22;37709;53.480;9.688;2024-03-23T10:28:01;26.80;93.80
2407;DHT22;37709;53.480;9.688;2024-03-23T10:30:27;22.00;95.90
2407;DHT22;37709;53.480;9.688;2024-03-23T10:33:11;19.00;99.90
2407;DHT22;37709;53.480;9.688;2024-03-23T10:35:38;15.70;99.90
2407;DHT22;37709;53.480;9.688;2024-03-23T10:38:05;12.30;99.90
2407;DHT22;37709;53.480;9.688;2024-03-23T10:40:35;10.80;99.90
2407;DHT22;37709;53.480;9.688;2024-03-23T10:43:06;10.00;99.90
2407;DHT22;37709;53.480;9.688;2024-03-23T10:45:34;9.60;99.90
2407;DHT22;37709;53.480;9.688;2024-03-23T10:48:01;9.40;99.90
2407;DHT22;37709;53.480;9.688;2024-03-23T10:50:28;9.30;99.90
2407;DHT22;37709;53.480;9.688;2024-03-23T10:52:56;13.50;99.90
2407;DHT22;37709;53.480;9.688;2024-03-23T10:55:25;18.00;99.90
2407;DHT22;37709;53.480;9.688;2024-03-23T10:57:58;20.90;99.90
2407;DHT22;37709;53.480;9.688;2024-03-23T11:00:26;22.80;99.90
2407;DHT22;37709;53.480;9.688;2024-03-23T11:02:52;25.90;99.90
2407;DHT22;37709;53.480;9.688;2024-03-23T11:05:31;26.60;99.90
2407;DHT22;37709;53.480;9.688;2024-03-23T11:07:58;25.00;99.90
2407;DHT22;37709;53.480;9.688;2024-03-23T11:10:28;24.10;99.90
2407;DHT22;37709;53.480;9.688;2024-03-23T11:12:58;21.00;99.90
2407;DHT22;37709;53.480;9.688;2024-03-23T11:15:44;17.50;99.90
2407;DHT22;37709;53.480;9.688;2024-03-23T11:18:10;15.40;99.90
2407;DHT22;37709;53.480;9.688;2024-03-23T11:20:38;13.90;99.90
2407;DHT22;37709;53.480;9.688;2024-03-23T11:23:04;13.20;99.90
2407;DHT22;37709;53.480;9.688;2024-03-23T11:25:31;12.50;99.90
2407;DHT22;37709;53.480;9.688;2024-03-23T11:28:11;12.40;99.90
2407;DHT22;37709;53.480;9.688;2024-03-23T11:30:37;18.20;99.90
2407;DHT22;37709;53.480;9.688;2024-03-23T11:35:37;21.70;99.90
2407;DHT22;37709;53.480;9.688;2024-03-23T11:38:15;23.30;99.90
2407;DHT22;37709;53.480;9.688;2024-03-23T11:40:45;26.10;99.90
2407;DHT22;37709;53.480;9.688;2024-03-23T11:43:14;24.40;96.90
2407;DHT22;37709;53.480;9.688;2024-03-23T11:45:44;20.80;99.90
2407;DHT22;37709;53.480;9.688;2024-03-23T11:48:16;25.20;99.90
2407;DHT22;37709;53.480;9.688;2024-03-23T11:50:45;22.10;99.90
2407;DHT22;37709;53.480;9.688;2024-03-23T11:53:23;20.40;99.90
2407;DHT22;37709;53.480;9.688;2024-03-23T11:55:55;19.80;99.90
2407;DHT22;37709;53.480;9.688;2024-03-23T11:58:24;19.00;99.90
2407;DHT22;37709;53.480;9.688;2024-03-23T12:01:00;19.40;99.90
2407;DHT22;37709;53.480;9.688;2024-03-23T12:03:28;20.50;99.90
2407;DHT22;37709;53.480;9.688;2024-03-23T12:05:59;24.60;98.20
2407;DHT22;37709;53.480;9.688;2024-03-23T12:08:35;25.50;94.80
2407;DHT22;37709;53.480;9.688;2024-03-23T12:13:33;24.20;93.50
2407;DHT22;37709;53.480;9.688;2024-03-23T12:16:16;21.80;94.40
2407;DHT22;37709;53.480;9.688;2024-03-23T12:18:44;21.40;93.50
2407;DHT22;37709;53.480;9.688;2024-03-23T12:21:10;19.50;93.90
2407;DHT22;37709;53.480;9.688;2024-03-23T12:23:39;19.90;95.40
2407;DHT22;37709;53.480;9.688;2024-03-23T12:26:06;20.00;94.90
2407;DHT22;37709;53.480;9.688;2024-03-23T12:28:34;18.70;99.10
2407;DHT22;37709;53.480;9.688;2024-03-23T12:31:00;16.20;99.90
2407;DHT22;37709;53.480;9.688;2024-03-23T12:33:27;14.00;99.90
2407;DHT22;37709;53.480;9.688;2024-03-23T12:35:54;12.40;99.90
2407;DHT22;37709;53.480;9.688;2024-03-23T12:38:21;11.50;99.90
2407;DHT22;37709;53.480;9.688;2024-03-23T12:40:49;10.20;99.90
2407;DHT22;37709;53.480;9.688;2024-03-23T12:43:16;9.50;99.90
2407;DHT22;37709;53.480;9.688;2024-03-23T12:45:48;9.20;99.90
2407;DHT22;37709;53.480;9.688;2024-03-23T12:48:15;9.20;99.90
2407;DHT22;37709;53.480;9.688;2024-03-23T12:50:43;9.50;99.90
2407;DHT22;37709;53.480;9.688;2024-03-23T12:53:09;9.70;99.90
2407;DHT22;37709;53.480;9.688;2024-03-23T12:55:36;10.20;99.90
2407;DHT22;37709;53.480;9.688;2024-03-23T12:58:03;10.60;99.90
2407;DHT22;37709;53.480;9.688;2024-03-23T13:00:31;9.70;99.90
2407;DHT22;37709;53.480;9.688;2024-03-23T13:02:58;8.50;99.90
2407;DHT22;37709;53.480;9.688;2024-03-23T13:05:25;7.60;99.90
2407;DHT22;37709;53.480;9.688;2024-03-23T13:07:53;7.00;99.90
2407;DHT22;37709;53.480;9.688;2024-03-23T13:10:20;6.50;99.90
2407;DHT22;37709;53.480;9.688;2024-03-23T13:12:46;6.50;99.90
2407;DHT22;37709;53.480;9.688;2024-03-23T13:15:12;7.00;99.90
2407;DHT22;37709;53.480;9.688;2024-03-23T13:17:41;8.00;99.90
2407;DHT22;37709;53.480;9.688;2024-03-23T13:20:08;8.50;99.90
2407;DHT22;37709;53.480;9.688;2024-03-23T13:22:39;8.60;99.90
2407;DHT22;37709;53.480;9.688;2024-03-23T13:25:06;8.80;99.90
2407;DHT22;37709;53.480;9.688;2024-03-23T13:27:33;9.50;99.90
2407;DHT22;37709;53.480;9.688;2024-03-23T13:29:59;9.60;99.90
2407;DHT22;37709;53.480;9.688;2024-03-23T13:32:26;9.00;99.90
2407;DHT22;37709;53.480;9.688;2024-03-23T13:34:52;8.60;99.90
2407;DHT22;37709;53.480;9.688;2024-03-23T13:37:19;8.60;99.90
2407;DHT22;37709;53.480;9.688;2024-03-23T13:39:46;9.10;99.90
2407;DHT22;37709;53.480;9.688;2024-03-23T13:42:12;10.30;99.90
2407;DHT22;37709;53.480;9.688;2024-03-23T13:44:39;11.70;99.90
2407;DHT22;37709;53.480;9.688;2024-03-23T13:47:06;12.20;99.90
2407;DHT22;37709;53.480;9.688;2024-03-23T13:49:32;13.80;99.90
2407;DHT22;37709;53.480;9.688;2024-03-23T13:51:59;14.70;99.90
2407;DHT22;37709;53.480;9.688;2024-03-23T13:54:26;14.20;99.90
2407;DHT22;37709;53.480;9.688;2024-03-23T13:56:54;15.10;99.90
2407;DHT22;37709;53.480;9.688;2024-03-23T13:59:21;15.10;99.90
2407;DHT22;37709;53.480;9.688;2024-03-23T14:01:50;17.90;99.90
2407;DHT22;37709;53.480;9.688;2024-03-23T14:04:17;18.70;99.90
2407;DHT22;37709;53.480;9.688;2024-03-23T14:06:46;18.90;99.90
2407;DHT22;37709;53.480;9.688;2024-03-23T14:09:13;18.50;99.90
2407;DHT22;37709;53.480;9.688;2024-03-23T14:11:41;18.80;99.90
2407;DHT22;37709;53.480;9.688;2024-03-23T14:14:10;18.00;99.90
2407;DHT22;37709;53.480;9.688;2024-03-23T14:16:37;19.50;99.90
2407;DHT22;37709;53.480;9.688;2024-03-23T14:19:03;19.50;99.90
2407;DHT22;37709;53.480;9.688;2024-03-23T14:21:32;19.70;99.90
2407;DHT22;37709;53.480;9.688;2024-03-23T14:24:01;19.60;99.90
2407;DHT22;37709;53.480;9.688;2024-03-23T14:26:28;18.70;99.90
2407;DHT22;37709;53.480;9.688;2024-03-23T14:28:55;19.60;99.90
2407;DHT22;37709;53.480;9.688;2024-03-23T14:31:21;19.70;99.90
2407;DHT22;37709;53.480;9.688;2024-03-23T14:33:48;20.30;99.90
2407;DHT22;37709;53.480;9.688;2024-03-23T14:36:16;18.70;99.90
2407;DHT22;37709;53.480;9.688;2024-03-23T14:38:48;18.40;99.90
2407;DHT22;37709;53.480;9.688;2024-03-23T14:41:15;18.70;99.90
2407;DHT22;37709;53.480;9.688;2024-03-23T14:43:41;16.50;99.90
2407;DHT22;37709;53.480;9.688;2024-03-23T14:46:14;14.90;99.90
2407;DHT22;37709;53.480;9.688;2024-03-23T14:48:43;13.50;99.90
2407;DHT22;37709;53.480;9.688;2024-03-23T14:51:11;12.40;99.90
2407;DHT22;37709;53.480;9.688;2024-03-23T14:54:02;12.00;99.90
2407;DHT22;37709;53.480;9.688;2024-03-23T14:56:29;10.40;99.90
2407;DHT22;37709;53.480;9.688;2024-03-23T14:58:55;10.50;99.90
2407;DHT22;37709;53.480;9.688;2024-03-23T15:01:23;13.40;99.90
2407;DHT22;37709;53.480;9.688;2024-03-23T15:03:50;14.60;99.90
2407;DHT22;37709;53.480;9.688;2024-03-23T15:06:19;15.00;99.90
2407;DHT22;37709;53.480;9.688;2024-03-23T15:08:46;14.60;99.90
2407;DHT22;37709;53.480;9.688;2024-03-23T15:11:16;13.20;99.90
2407;DHT22;37709;53.480;9.688;2024-03-23T15:13:45;12.50;99.90
2407;DHT22;37709;53.480;9.688;2024-03-23T15:16:19;12.20;99.90
2407;DHT22;37709;53.480;9.688;2024-03-23T15:18:47;11.70;99.90
2407;DHT22;37709;53.480;9.688;2024-03-23T15:21:13;11.40;99.90
2407;DHT22;37709;53.480;9.688;2024-03-23T15:23:45;11.40;99.90
2407;DHT22;37709;53.480;9.688;2024-03-23T15:26:13;11.00;99.90
2407;DHT22;37709;53.480;9.688;2024-03-23T15:28:42;10.80;99.90
2407;DHT22;37709;53.480;9.688;2024-03-23T15:31:25;10.10;99.90
2407;DHT22;37709;53.480;9.688;2024-03-23T15:33:52;9.60;99.90
2407;DHT22;37709;53.480;9.688;2024-03-23T15:36:19;9.20;99.90
2407;DHT22;37709;53.480;9.688;2024-03-23T15:38:45;9.20;99.90
2407;DHT22;37709;53.480;9.688;2024-03-23T15:41:11;8.80;99.90
2407;DHT22;37709;53.480;9.688;2024-03-23T15:43:40;8.40;99.90
2407;DHT22;37709;53.480;9.688;2024-03-23T15:46:09;8.20;99.90
2407;DHT22;37709;53.480;9.688;2024-03-23T15:48:41;8.20;99.90
2407;DHT22;37709;53.480;9.688;2024-03-23T15:51:17;8.40;99.90
2407;DHT22;37709;53.480;9.688;2024-03-23T15:53:44;8.50;99.90
2407;DHT22;37709;53.480;9.688;2024-03-23T15:56:11;8.30;99.90
2407;DHT22;37709;53.480;9.688;2024-03-23T15:58:39;7.90;99.90
2407;DHT22;37709;53.480;9.688;2024-03-23T16:01:09;7.60;99.90
2407;DHT22;37709;53.480;9.688;2024-03-23T16:03:38;7.40;99.90
2407;DHT22;37709;53.480;9.688;2024-03-23T16:06:08;7.10;99.90
2407;DHT22;37709;53.480;9.688;2024-03-23T16:08:34;6.90;99.90
2407;DHT22;37709;53.480;9.688;2024-03-23T16:11:03;6.90;99.90
2407;DHT22;37709;53.480;9.688;2024-03-23T16:13:30;7.60;99.90
2407;DHT22;37709;53.480;9.688;2024-03-23T16:15:58;8.30;99.90
2407;DHT22;37709;53.480;9.688;2024-03-23T16:18:27;8.90;99.90
2407;DHT22;37709;53.480;9.688;2024-03-23T16:20:57;9.40;99.90
2407;DHT22;37709;53.480;9.688;2024-03-23T16:23:25;9.20;99.90
2407;DHT22;37709;53.480;9.688;2024-03-23T16:25:55;8.90;99.90
2407;DHT22;37709;53.480;9.688;2024-03-23T16:28:26;8.50;99.90
2407;DHT22;37709;53.480;9.688;2024-03-23T16:30:55;7.80;99.90
2407;DHT22;37709;53.480;9.688;2024-03-23T16:33:47;7.40;99.90
2407;DHT22;37709;53.480;9.688;2024-03-23T16:36:15;7.20;99.90
2407;DHT22;37709;53.480;9.688;2024-03-23T16:38:43;7.10;99.90
2407;DHT22;37709;53.480;9.688;2024-03-23T16:41:13;7.20;99.90
2407;DHT22;37709;53.480;9.688;2024-03-23T16:43:42;7.30;99.90
2407;DHT22;37709;53.480;9.688;2024-03-23T16:46:11;7.40;99.90
2407;DHT22;37709;53.480;9.688;2024-03-23T16:48:41;7.50;99.90
2407;DHT22;37709;53.480;9.688;2024-03-23T16:51:10;7.30;99.90
2407;DHT22;37709;53.480;9.688;2024-03-23T16:53:38;7.00;99.90
2407;DHT22;37709;53.480;9.688;2024-03-23T16:56:09;6.70;99.90
2407;DHT22;37709;53.480;9.688;2024-03-23T16:58:36;6.50;99.90
2407;DHT22;37709;53.480;9.688;2024-03-23T17:01:05;6.40;99.90